createdAt,value
2018-08-20T00:00:50.021Z,13.95
2018-08-20T00:04:14.552Z,14.07
2018-08-20T00:07:39.007Z,15.13
2018-08-20T00:11:03.531Z,14.58
2018-08-20T00:14:27.990Z,14.75
2018-08-20T00:17:52.440Z,12.90
2018-08-20T00:21:16.899Z,13.40
2018-08-20T00:24:41.340Z,13.53
2018-08-20T00:28:05.765Z,13.03
2018-08-20T00:31:30.227Z,14.33
2018-08-20T00:34:54.624Z,13.05
2018-08-20T00:38:19.088Z,13.25
2018-08-20T00:41:43.719Z,12.50
2018-08-20T00:45:08.815Z,12.03
2018-08-20T00:48:33.269Z,11.80
2018-08-20T00:51:57.717Z,13.00
2018-08-20T00:55:22.138Z,14.38
2018-08-20T00:58:46.539Z,11.22
2018-08-20T01:02:11.015Z,12.90
2018-08-20T01:05:35.447Z,12.80
2018-08-20T01:09:00.122Z,12.45
2018-08-20T01:12:24.731Z,13.53
2018-08-20T01:15:49.183Z,14.68
2018-08-20T01:19:13.604Z,13.22
2018-08-20T01:22:38.086Z,12.58
2018-08-20T01:26:02.606Z,12.13
2018-08-20T01:29:27.040Z,12.70
2018-08-20T01:32:51.962Z,14.95
2018-08-20T01:36:16.402Z,15.63
2018-08-20T01:39:40.863Z,16.52
2018-08-20T01:43:05.316Z,15.80
2018-08-20T01:46:29.810Z,16.10
2018-08-20T01:49:54.240Z,16.67
2018-08-20T01:53:18.693Z,14.73
2018-08-20T01:56:43.109Z,13.45
2018-08-20T02:00:07.569Z,15.43
2018-08-20T02:03:32.223Z,14.03
2018-08-20T02:06:56.629Z,14.55
2018-08-20T02:10:21.115Z,14.15
2018-08-20T02:13:45.657Z,14.03
2018-08-20T02:17:10.089Z,13.95
2018-08-20T02:20:34.575Z,13.38
2018-08-20T02:23:59.040Z,14.73
2018-08-20T02:27:23.485Z,14.35
2018-08-20T02:30:47.903Z,14.78
2018-08-20T02:34:12.508Z,15.18
2018-08-20T02:37:42.057Z,14.70
2018-08-20T02:41:06.673Z,14.95
2018-08-20T02:44:31.137Z,16.05
2018-08-20T02:47:55.576Z,14.15
2018-08-20T02:51:19.973Z,14.23
2018-08-20T02:54:44.389Z,15.23
2018-08-20T02:58:08.810Z,14.53
2018-08-20T03:01:33.251Z,14.30
2018-08-20T03:04:57.731Z,16.57
2018-08-20T03:08:22.192Z,14.55
2018-08-20T03:11:46.627Z,16.80
2018-08-20T03:15:11.823Z,17.85
2018-08-20T03:18:36.240Z,19.07
2018-08-20T03:22:00.660Z,19.92
2018-08-20T03:25:25.948Z,18.57
2018-08-20T03:28:50.357Z,17.05
2018-08-20T03:32:14.774Z,17.07
2018-08-20T03:35:39.198Z,18.17
2018-08-20T03:39:04.586Z,20.05
2018-08-20T03:42:29.023Z,18.42
2018-08-20T03:45:53.547Z,18.85
2018-08-20T03:49:18.079Z,19.52
2018-08-20T03:52:42.527Z,20.50
2018-08-20T03:56:07.153Z,18.45
2018-08-20T03:59:36.298Z,18.65
2018-08-20T04:03:00.720Z,17.17
2018-08-20T04:06:25.163Z,17.30
2018-08-20T04:09:49.568Z,16.42
2018-08-20T04:13:14.009Z,16.87
2018-08-20T04:16:38.441Z,16.15
2018-08-20T04:20:02.984Z,15.00
2018-08-20T04:23:27.453Z,15.45
2018-08-20T04:26:52.089Z,13.75
2018-08-20T04:30:16.527Z,14.43
2018-08-20T04:33:40.951Z,14.47
2018-08-20T04:37:05.431Z,16.17
2018-08-20T04:40:29.904Z,16.15
2018-08-20T04:43:54.531Z,14.50
2018-08-20T04:47:19.241Z,16.45
2018-08-20T04:50:43.766Z,15.53
2018-08-20T04:54:08.269Z,14.60
2018-08-20T04:57:32.672Z,16.27
2018-08-20T05:00:58.091Z,16.40
2018-08-20T05:04:22.553Z,16.25
2018-08-20T05:07:47.020Z,14.50
2018-08-20T05:11:11.603Z,14.75
2018-08-20T05:14:36.032Z,16.25
2018-08-20T05:18:00.631Z,14.87
2018-08-20T05:21:25.252Z,15.75
2018-08-20T05:24:49.690Z,14.98
2018-08-20T05:28:14.125Z,14.85
2018-08-20T05:31:38.553Z,13.88
2018-08-20T05:35:02.962Z,14.50
2018-08-20T05:38:27.467Z,15.10
2018-08-20T05:41:51.882Z,14.60
2018-08-20T05:45:16.306Z,14.87
2018-08-20T05:48:40.751Z,15.05
2018-08-20T05:52:05.376Z,15.32
2018-08-20T05:55:29.803Z,14.23
2018-08-20T05:58:54.206Z,14.58
2018-08-20T06:02:18.714Z,16.67
2018-08-20T06:05:43.171Z,15.40
2018-08-20T06:09:09.943Z,15.98
2018-08-20T06:12:34.746Z,15.90
2018-08-20T06:15:59.320Z,16.95
2018-08-20T06:19:23.809Z,17.23
2018-08-20T06:22:48.217Z,18.15
2018-08-20T06:26:12.758Z,17.30
2018-08-20T06:29:37.211Z,18.55
2018-08-20T06:33:01.694Z,19.23
2018-08-20T06:36:26.242Z,19.65
2018-08-20T06:39:50.728Z,19.98
2018-08-20T06:43:15.111Z,19.67
2018-08-20T06:46:39.573Z,19.90
2018-08-20T06:50:05.432Z,18.55
2018-08-20T06:53:29.817Z,18.48
2018-08-20T06:56:54.255Z,18.05
2018-08-20T07:00:25.282Z,17.80
2018-08-20T07:03:49.718Z,18.85
2018-08-20T07:07:14.184Z,16.77
2018-08-20T07:10:43.907Z,18.50
2018-08-20T07:14:08.370Z,17.23
2018-08-20T07:17:32.840Z,17.95
2018-08-20T07:20:57.540Z,18.17
2018-08-20T07:24:21.944Z,15.20
2018-08-20T07:27:46.384Z,17.37
2018-08-20T07:31:10.836Z,16.70
2018-08-20T07:34:35.288Z,16.30
2018-08-20T07:37:59.752Z,17.55
2018-08-20T07:41:24.561Z,17.80
2018-08-20T07:44:49.015Z,17.15
2018-08-20T07:48:13.457Z,18.25
2018-08-20T07:51:37.875Z,16.73
2018-08-20T07:55:02.295Z,16.90
2018-08-20T07:58:26.807Z,18.67
2018-08-20T08:01:51.394Z,17.27
2018-08-20T08:05:15.868Z,18.05
2018-08-20T08:08:40.377Z,17.52
2018-08-20T08:12:04.833Z,17.02
2018-08-20T08:15:29.314Z,19.30
2018-08-20T08:18:53.948Z,20.77
2018-08-20T08:22:18.419Z,20.50
2018-08-20T08:25:42.849Z,21.35
2018-08-20T08:29:07.352Z,22.45
2018-08-20T08:32:31.862Z,22.60
2018-08-20T08:35:56.376Z,21.75
2018-08-20T08:39:20.820Z,22.50
2018-08-20T08:42:45.385Z,24.65
2018-08-20T08:46:09.821Z,24.43
2018-08-20T08:49:34.259Z,23.80
2018-08-20T08:52:58.699Z,25.77
2018-08-20T08:56:23.163Z,26.60
2018-08-20T08:59:47.642Z,26.27
2018-08-20T09:03:12.107Z,26.00
2018-08-20T09:06:36.541Z,24.70
2018-08-20T09:10:01.004Z,25.90
2018-08-20T09:13:25.517Z,25.32
2018-08-20T09:16:49.936Z,26.15
2018-08-20T09:20:20.998Z,27.55
2018-08-20T09:23:45.447Z,27.50
2018-08-20T09:27:10.227Z,26.77
2018-08-20T09:30:34.677Z,24.80
2018-08-20T09:33:59.386Z,30.95
2018-08-20T09:37:23.790Z,29.07
2018-08-20T09:40:48.275Z,27.98
2018-08-20T09:44:12.750Z,28.07
2018-08-20T09:47:38.344Z,26.95
2018-08-20T09:51:02.800Z,27.25
2018-08-20T09:54:27.261Z,27.17
2018-08-20T09:57:51.706Z,25.95
2018-08-20T10:01:16.148Z,27.98
2018-08-20T10:04:40.565Z,26.57
2018-08-20T10:08:05.043Z,26.48
2018-08-20T10:11:29.486Z,26.95
2018-08-20T10:14:53.900Z,25.02
2018-08-20T10:18:18.368Z,26.02
2018-08-20T10:21:42.774Z,23.83
2018-08-20T10:25:07.660Z,23.77
2018-08-20T10:28:32.170Z,23.40
2018-08-20T10:31:56.649Z,21.10
2018-08-20T10:35:21.105Z,21.02
2018-08-20T10:38:45.550Z,23.22
2018-08-20T10:42:10.035Z,23.35
2018-08-20T10:45:39.814Z,24.30
2018-08-20T10:49:04.300Z,23.45
2018-08-20T10:52:28.807Z,22.80
2018-08-20T10:55:53.456Z,20.72
2018-08-20T10:59:17.847Z,19.95
2018-08-20T11:02:42.390Z,21.45
2018-08-20T11:06:06.868Z,19.75
2018-08-20T11:09:31.290Z,17.40
2018-08-20T11:12:55.739Z,20.60
2018-08-20T11:16:20.195Z,20.30
2018-08-20T11:19:44.602Z,19.75
2018-08-20T11:23:09.043Z,20.27
2018-08-20T11:26:33.482Z,19.55
2018-08-20T11:29:57.946Z,21.00
2018-08-20T11:33:22.430Z,21.90
2018-08-20T11:36:46.904Z,21.80
2018-08-20T11:40:17.825Z,18.87
2018-08-20T11:43:42.381Z,20.20
2018-08-20T11:47:06.842Z,22.77
2018-08-20T11:50:31.269Z,19.55
2018-08-20T11:53:55.669Z,19.73
2018-08-20T11:57:20.142Z,22.05
2018-08-20T12:00:44.575Z,23.27
2018-08-20T12:04:08.996Z,22.50
2018-08-20T12:07:33.423Z,23.40
2018-08-20T12:10:57.852Z,27.30
2018-08-20T12:14:22.324Z,25.23
2018-08-20T12:17:46.719Z,26.02
2018-08-20T12:21:11.497Z,25.37
2018-08-20T12:24:36.078Z,26.42
2018-08-20T12:28:00.523Z,27.45
2018-08-20T12:31:24.937Z,28.50
2018-08-20T12:34:49.503Z,30.02
2018-08-20T12:38:13.941Z,30.05
2018-08-20T12:41:38.397Z,29.87
2018-08-20T12:45:02.844Z,28.40
2018-08-20T12:48:27.297Z,30.37
2018-08-20T12:51:51.702Z,29.37
2018-08-20T12:55:16.118Z,31.15
2018-08-20T12:58:48.282Z,31.75
2018-08-20T13:02:12.751Z,30.05
2018-08-20T13:05:37.153Z,29.12
2018-08-20T13:09:02.143Z,30.65
2018-08-20T13:12:26.497Z,27.90
2018-08-20T13:15:51.015Z,26.40
2018-08-20T13:19:15.385Z,28.00
2018-08-20T13:22:39.812Z,25.68
2018-08-20T13:26:04.384Z,25.02
2018-08-20T13:29:28.832Z,21.85
2018-08-20T13:32:53.379Z,21.45
2018-08-20T13:36:17.812Z,19.85
2018-08-20T13:39:42.272Z,20.65
2018-08-20T13:43:07.115Z,19.07
2018-08-20T13:46:31.552Z,19.70
2018-08-20T13:50:02.225Z,19.40
2018-08-20T13:53:26.595Z,19.87
2018-08-20T13:56:51.023Z,19.92
2018-08-20T14:00:17.141Z,18.87
2018-08-20T14:03:41.544Z,16.87
2018-08-20T14:07:06.020Z,18.35
2018-08-20T14:10:30.447Z,18.77
2018-08-20T14:13:54.905Z,19.23
2018-08-20T14:17:19.346Z,17.67
2018-08-20T14:20:57.944Z,16.30
2018-08-20T14:24:22.399Z,15.05
2018-08-20T14:27:46.790Z,14.95
2018-08-20T14:31:11.238Z,13.45
2018-08-20T14:34:35.698Z,12.85
2018-08-20T14:38:00.136Z,12.90
2018-08-20T14:41:24.566Z,14.07
2018-08-20T14:44:48.978Z,12.13
2018-08-20T14:48:13.438Z,11.83
2018-08-20T14:51:37.930Z,10.20
2018-08-20T14:55:02.378Z,8.83
2018-08-20T14:58:26.809Z,5.37
2018-08-20T15:01:51.327Z,2.72
2018-08-20T15:05:15.729Z,1.82
2018-08-20T15:08:40.649Z,2.00
2018-08-20T15:12:05.519Z,2.15
2018-08-20T15:15:29.961Z,2.27
2018-08-20T15:18:54.381Z,2.17
2018-08-20T15:22:18.813Z,1.90
2018-08-20T15:25:43.247Z,2.02
2018-08-20T15:29:07.963Z,1.90
2018-08-20T15:32:32.468Z,2.10
2018-08-20T15:35:57.150Z,1.90
2018-08-20T15:39:21.605Z,2.42
2018-08-20T15:46:11.284Z,2.67
2018-08-20T15:49:35.608Z,2.05
2018-08-20T15:53:00.098Z,2.47
2018-08-20T15:56:24.581Z,2.22
2018-08-20T15:59:49.043Z,2.58
2018-08-20T16:03:13.454Z,2.25
2018-08-20T16:06:37.918Z,2.62
2018-08-20T16:10:02.423Z,2.33
2018-08-20T16:13:26.812Z,2.50
2018-08-20T16:16:51.265Z,2.55
2018-08-20T16:20:15.690Z,2.77
2018-08-20T16:23:40.143Z,2.58
2018-08-20T16:27:04.590Z,2.35
2018-08-20T16:30:29.035Z,3.00
2018-08-20T16:33:53.503Z,3.00
2018-08-20T16:37:17.950Z,2.30
2018-08-20T16:40:42.408Z,2.30
2018-08-20T16:44:07.472Z,2.92
2018-08-20T16:47:31.985Z,2.75
2018-08-20T16:50:56.411Z,2.35
2018-08-20T16:54:20.853Z,2.80
2018-08-20T16:57:45.298Z,2.60
2018-08-20T17:01:15.840Z,2.60
2018-08-20T17:04:41.601Z,3.20
2018-08-20T17:08:06.210Z,3.02
2018-08-20T17:11:30.610Z,3.20
2018-08-20T17:14:55.100Z,3.40
2018-08-20T17:18:19.531Z,3.10
2018-08-20T17:21:43.919Z,3.60
2018-08-20T17:25:14.057Z,3.77
2018-08-20T17:28:39.524Z,3.70
2018-08-20T17:32:05.681Z,4.35
2018-08-20T17:35:30.294Z,3.45
2018-08-20T17:38:54.698Z,3.55
2018-08-20T17:42:19.125Z,3.60
2018-08-20T17:45:43.511Z,4.53
2018-08-20T17:49:10.849Z,3.65
2018-08-20T17:52:39.207Z,3.45
2018-08-20T17:56:03.641Z,2.92
2018-08-20T17:59:28.104Z,2.47
2018-08-20T18:02:52.571Z,2.05
2018-08-20T18:06:17.029Z,2.00
2018-08-20T18:09:41.422Z,1.77
2018-08-20T18:13:05.894Z,2.02
2018-08-20T18:16:30.815Z,2.10
2018-08-20T18:19:55.518Z,1.80
2018-08-20T18:23:20.220Z,1.57
2018-08-20T18:26:50.880Z,1.42
2018-08-20T18:30:17.687Z,1.12
2018-08-20T18:33:44.059Z,1.47
2018-08-20T18:37:08.540Z,1.32
2018-08-20T18:40:33.298Z,1.57
2018-08-20T18:43:57.945Z,1.62
2018-08-20T18:47:22.737Z,1.42
2018-08-20T18:50:47.717Z,1.20
2018-08-20T18:54:12.597Z,1.50
2018-08-20T18:57:39.238Z,1.40
2018-08-20T19:01:03.839Z,1.20
2018-08-20T19:04:38.736Z,1.20
2018-08-20T19:08:06.723Z,1.20
2018-08-20T19:11:31.349Z,1.40
2018-08-20T19:14:56.181Z,1.15
2018-08-20T19:18:24.421Z,1.42
2018-08-20T19:21:48.921Z,1.30
2018-08-20T19:25:13.659Z,1.50
2018-08-20T19:28:38.275Z,1.45
2018-08-20T19:32:03.912Z,1.55
2018-08-20T19:35:29.005Z,1.52
2018-08-20T19:38:54.304Z,1.65
2018-08-20T19:42:23.919Z,2.08
2018-08-20T19:45:49.737Z,2.55
2018-08-20T19:49:15.567Z,2.20
2018-08-20T19:52:42.523Z,2.22
2018-08-20T19:56:14.673Z,2.75
2018-08-20T19:59:40.043Z,2.22
2018-08-20T20:03:05.069Z,2.60
2018-08-20T20:06:30.876Z,2.22
2018-08-20T20:09:55.386Z,2.85
2018-08-20T20:13:20.650Z,2.83
2018-08-20T20:16:51.566Z,3.10
2018-08-20T20:20:16.006Z,3.02
2018-08-20T20:23:40.468Z,3.05
2018-08-20T20:27:05.064Z,2.60
2018-08-20T20:30:29.613Z,3.27
2018-08-20T20:33:54.444Z,3.00
2018-08-20T20:37:18.870Z,3.85
2018-08-20T20:40:43.585Z,3.45
2018-08-20T20:44:13.443Z,3.30
2018-08-20T20:47:37.953Z,4.22
2018-08-20T20:51:02.477Z,3.60
2018-08-20T20:54:27.691Z,3.40
2018-08-20T20:57:52.125Z,3.45
2018-08-20T21:01:16.615Z,3.35
2018-08-20T21:04:40.992Z,4.03
2018-08-20T21:08:05.443Z,3.70
2018-08-20T21:11:29.912Z,3.85
2018-08-20T21:14:54.317Z,3.42
2018-08-20T21:18:18.755Z,3.30
2018-08-20T21:21:43.213Z,3.42
2018-08-20T21:25:09.179Z,3.70
2018-08-20T21:28:39.552Z,3.27
2018-08-20T21:32:04.028Z,3.15
2018-08-20T21:35:28.465Z,2.92
2018-08-20T21:38:52.968Z,2.90
2018-08-20T21:42:17.427Z,3.77
2018-08-20T21:45:41.803Z,4.15
2018-08-20T21:49:07.042Z,3.65
2018-08-20T21:52:31.478Z,3.77
2018-08-20T21:55:56.132Z,3.12
2018-08-20T21:59:20.556Z,3.30
2018-08-20T22:02:48.801Z,3.47
2018-08-20T22:06:13.784Z,3.70
2018-08-20T22:09:38.268Z,3.52
2018-08-20T22:13:02.731Z,3.85
2018-08-20T22:16:27.217Z,3.62
2018-08-20T22:19:51.695Z,3.75
2018-08-20T22:23:25.273Z,3.50
2018-08-20T22:27:12.671Z,4.42
2018-08-20T22:30:38.886Z,3.67
2018-08-20T22:34:06.405Z,4.05
2018-08-20T22:37:30.801Z,3.87
2018-08-20T22:40:55.253Z,3.60
2018-08-20T22:44:19.713Z,3.62
2018-08-20T22:47:44.678Z,4.47
2018-08-20T22:51:12.184Z,3.70
2018-08-20T22:54:36.616Z,4.28
2018-08-20T22:58:11.496Z,3.92
2018-08-20T23:01:35.951Z,4.75
2018-08-20T23:05:02.320Z,4.12
2018-08-20T23:08:26.751Z,4.33
2018-08-20T23:11:51.178Z,3.87
2018-08-20T23:15:15.611Z,3.60
2018-08-20T23:18:40.041Z,3.15
2018-08-20T23:22:04.487Z,4.37
2018-08-20T23:25:28.981Z,3.62
2018-08-20T23:28:53.407Z,2.85
2018-08-20T23:32:17.804Z,3.42
2018-08-20T23:35:42.196Z,3.20
2018-08-20T23:39:09.697Z,3.30
2018-08-20T23:42:34.147Z,3.00
2018-08-20T23:45:58.677Z,3.05
2018-08-20T23:49:23.111Z,3.00
2018-08-20T23:52:47.545Z,2.72
2018-08-20T23:56:11.984Z,2.30
2018-08-20T23:59:36.449Z,3.60
